Preview of NWS' New Version of Forecast
This preview is not operational and should not be used for support decisions.

Terminal Aerodrome Forecast (TAF)

Issued by National Weather Service (NWS)

                            
000
FTUS42 KKEY 222114 AAA
TAFEYW
TAF AMD
KEYW 222114Z 2221/2318 10017G25KT P6SM SCT040 BKN050
     FM230200 12015G23KT P6SM SCT035 SCT050=